createdAt,value
2017-08-04T00:01:46.320Z,3.70
2017-08-04T00:04:13.748Z,5.10
2017-08-04T00:06:41.228Z,4.23
2017-08-04T00:09:08.682Z,3.73
2017-08-04T00:11:36.144Z,3.73
2017-08-04T00:14:03.635Z,3.70
2017-08-04T00:16:31.896Z,5.60
2017-08-04T00:19:00.132Z,4.60
2017-08-04T00:21:27.582Z,4.17
2017-08-04T00:23:55.016Z,3.60
2017-08-04T00:26:22.497Z,3.53
2017-08-04T00:28:49.978Z,6.50
2017-08-04T00:31:17.545Z,6.70
2017-08-04T00:33:45.035Z,3.77
2017-08-04T00:36:13.272Z,8.10
2017-08-04T00:38:40.815Z,4.53
2017-08-04T00:41:08.276Z,6.37
2017-08-04T00:43:35.709Z,4.50
2017-08-04T00:46:03.171Z,4.90
2017-08-04T00:48:30.618Z,4.87
2017-08-04T00:50:58.108Z,4.23
2017-08-04T00:53:25.542Z,4.20
2017-08-04T00:55:52.983Z,4.10
2017-08-04T00:58:20.443Z,4.23
2017-08-04T01:00:47.926Z,3.77
2017-08-04T01:03:15.408Z,3.60
2017-08-04T01:05:42.852Z,4.30
2017-08-04T01:08:10.298Z,4.07
2017-08-04T01:10:37.763Z,4.00
2017-08-04T01:13:05.220Z,4.20
2017-08-04T01:15:32.763Z,3.97
2017-08-04T01:18:00.211Z,5.00
2017-08-04T01:20:27.655Z,3.97
2017-08-04T01:22:55.111Z,6.20
2017-08-04T01:25:22.556Z,4.80
2017-08-04T01:27:50.048Z,4.70
2017-08-04T01:30:17.492Z,3.90
2017-08-04T01:32:44.970Z,4.57
2017-08-04T01:35:12.419Z,3.63
2017-08-04T01:37:39.878Z,3.97
2017-08-04T01:40:07.351Z,4.20
2017-08-04T01:42:35.604Z,3.60
2017-08-04T01:45:03.038Z,4.70
2017-08-04T01:47:30.509Z,5.03
2017-08-04T01:49:57.973Z,5.90
2017-08-04T01:52:25.458Z,4.70
2017-08-04T01:54:53.707Z,4.60
2017-08-04T01:57:21.168Z,4.73
2017-08-04T01:59:48.624Z,6.40
2017-08-04T02:02:16.070Z,9.93
2017-08-04T02:04:43.511Z,8.37
2017-08-04T02:07:11.000Z,6.33
2017-08-04T02:09:39.261Z,6.93
2017-08-04T02:12:06.748Z,6.87
2017-08-04T02:14:34.954Z,7.80
2017-08-04T02:17:02.439Z,9.67
2017-08-04T02:19:29.915Z,7.93
2017-08-04T02:21:57.371Z,8.70
2017-08-04T02:24:24.809Z,8.10
2017-08-04T02:26:52.360Z,7.93
2017-08-04T02:29:19.820Z,8.00
2017-08-04T02:31:47.382Z,6.33
2017-08-04T02:34:14.819Z,7.97
2017-08-04T02:36:42.280Z,9.50
2017-08-04T02:39:09.779Z,6.93
2017-08-04T02:41:37.989Z,7.60
2017-08-04T02:44:05.962Z,9.23
2017-08-04T02:46:33.383Z,6.77
2017-08-04T02:49:01.627Z,7.47
2017-08-04T02:51:29.087Z,6.23
2017-08-04T02:53:56.548Z,5.57
2017-08-04T02:56:24.018Z,8.00
2017-08-04T02:58:51.492Z,5.97
2017-08-04T03:01:19.001Z,5.90
2017-08-04T03:03:46.457Z,6.03
2017-08-04T03:06:13.920Z,7.63
2017-08-04T03:08:41.404Z,6.07
2017-08-04T03:11:09.644Z,6.67
2017-08-04T03:13:37.084Z,5.83
2017-08-04T03:16:04.535Z,5.63
2017-08-04T03:18:32.120Z,6.30
2017-08-04T03:20:59.580Z,12.83
2017-08-04T03:23:27.003Z,5.83
2017-08-04T03:25:54.471Z,8.13
2017-08-04T03:28:21.939Z,5.60
2017-08-04T03:30:49.412Z,5.53
2017-08-04T03:33:16.851Z,7.30
2017-08-04T03:35:44.299Z,8.57
2017-08-04T03:38:11.780Z,6.73
2017-08-04T03:40:39.232Z,6.47
2017-08-04T03:43:06.712Z,5.73
2017-08-04T03:45:34.948Z,5.90
2017-08-04T03:48:02.404Z,6.03
2017-08-04T03:50:29.868Z,6.70
2017-08-04T03:52:57.332Z,6.57
2017-08-04T03:55:24.884Z,6.00
2017-08-04T03:57:52.368Z,8.20
2017-08-04T04:00:20.605Z,6.10
2017-08-04T04:02:48.072Z,10.33
2017-08-04T04:05:15.523Z,6.73
2017-08-04T04:07:42.957Z,9.40
2017-08-04T04:10:10.426Z,7.47
2017-08-04T04:12:37.872Z,7.70
2017-08-04T04:15:05.336Z,7.20
2017-08-04T04:17:32.792Z,7.37
2017-08-04T04:20:00.234Z,9.40
2017-08-04T04:22:27.711Z,7.07
2017-08-04T04:24:55.160Z,7.73
2017-08-04T04:27:22.652Z,7.30
2017-08-04T04:29:50.093Z,6.70
2017-08-04T04:32:17.543Z,10.77
2017-08-04T04:34:45.107Z,7.93
2017-08-04T04:37:12.545Z,6.67
2017-08-04T04:39:40.109Z,7.10
2017-08-04T04:42:07.669Z,7.30
2017-08-04T04:44:35.951Z,8.73
2017-08-04T04:47:03.437Z,7.53
2017-08-04T04:49:31.651Z,9.10
2017-08-04T04:51:59.103Z,7.50
2017-08-04T04:54:26.580Z,7.53
2017-08-04T04:56:54.028Z,7.97
2017-08-04T04:59:21.504Z,8.07
2017-08-04T05:01:48.952Z,8.43
2017-08-04T05:04:16.416Z,9.03
2017-08-04T05:06:43.854Z,8.10
2017-08-04T05:09:11.325Z,8.87
2017-08-04T05:11:38.787Z,7.77
2017-08-04T05:14:06.333Z,8.33
2017-08-04T05:16:33.812Z,9.17
2017-08-04T05:19:01.256Z,8.90
2017-08-04T05:21:28.715Z,12.43
2017-08-04T05:23:56.200Z,10.30
2017-08-04T05:26:24.398Z,8.03
2017-08-04T05:28:51.948Z,7.10
2017-08-04T05:31:19.443Z,10.53
2017-08-04T05:33:46.928Z,10.97
2017-08-04T05:36:14.399Z,8.60
2017-08-04T05:38:42.756Z,8.60
2017-08-04T05:41:10.246Z,8.40
2017-08-04T05:43:38.454Z,8.63
2017-08-04T05:46:05.910Z,6.70
2017-08-04T05:48:33.368Z,8.37
2017-08-04T05:51:00.844Z,10.70
2017-08-04T05:53:28.297Z,10.37
2017-08-04T05:55:55.775Z,8.73
2017-08-04T05:58:23.999Z,17.97
2017-08-04T06:00:51.484Z,6.90
2017-08-04T06:03:18.959Z,8.83
2017-08-04T06:05:46.396Z,6.43
2017-08-04T06:08:13.880Z,13.90
2017-08-04T06:10:42.087Z,7.33
2017-08-04T06:13:09.540Z,3.90
2017-08-04T06:15:37.023Z,3.07
2017-08-04T06:18:04.462Z,4.43
2017-08-04T06:20:31.907Z,2.60
2017-08-04T06:22:59.383Z,3.53
2017-08-04T06:25:26.847Z,4.10
2017-08-04T06:27:54.325Z,3.20
2017-08-04T06:30:21.787Z,4.73
2017-08-04T06:32:49.227Z,2.73
2017-08-04T06:35:16.710Z,3.10
2017-08-04T06:37:44.157Z,2.30
2017-08-04T06:40:11.623Z,1.87
2017-08-04T06:42:39.176Z,3.60
2017-08-04T06:45:06.631Z,5.87
2017-08-04T06:47:34.079Z,3.17
2017-08-04T06:50:13.452Z,2.33
2017-08-04T06:53:02.709Z,5.50
2017-08-04T06:55:52.409Z,2.83
2017-08-04T06:58:19.880Z,2.73
2017-08-04T07:00:47.373Z,2.13
2017-08-04T07:03:14.827Z,3.37
2017-08-04T07:05:42.303Z,1.83
2017-08-04T07:08:09.791Z,1.87
2017-08-04T07:10:37.266Z,3.60
2017-08-04T07:13:04.707Z,5.63
2017-08-04T07:15:32.154Z,3.07
2017-08-04T07:17:59.655Z,2.23
2017-08-04T07:20:27.094Z,3.00
2017-08-04T07:22:54.579Z,2.00
2017-08-04T07:25:22.035Z,2.70
2017-08-04T07:27:49.484Z,1.60
2017-08-04T07:30:16.975Z,1.70
2017-08-04T07:32:45.223Z,2.53
2017-08-04T07:35:12.676Z,2.27
2017-08-04T07:37:40.233Z,2.70
2017-08-04T07:40:07.688Z,2.37
2017-08-04T07:42:35.188Z,2.40
2017-08-04T07:45:03.388Z,3.40
2017-08-04T07:47:30.897Z,2.80
2017-08-04T07:49:58.420Z,1.70
2017-08-04T07:52:25.880Z,2.30
2017-08-04T07:54:53.448Z,2.63
2017-08-04T07:57:21.020Z,1.53
2017-08-04T07:59:48.491Z,2.63
2017-08-04T08:02:16.701Z,1.50
2017-08-04T08:04:44.163Z,2.40
2017-08-04T08:07:11.661Z,1.60
2017-08-04T08:09:39.103Z,1.80
2017-08-04T08:12:06.535Z,1.53
2017-08-04T08:14:34.011Z,3.50
2017-08-04T08:17:01.447Z,1.83
2017-08-04T08:19:28.900Z,1.30
2017-08-04T08:21:56.381Z,2.07
2017-08-04T08:24:23.820Z,1.43
2017-08-04T08:26:51.279Z,1.63
2017-08-04T08:29:18.855Z,1.27
2017-08-04T08:31:46.296Z,2.07
2017-08-04T08:34:13.875Z,1.20
2017-08-04T08:36:41.320Z,2.13
2017-08-04T08:39:08.775Z,1.50
2017-08-04T08:41:36.236Z,1.50
2017-08-04T08:44:03.713Z,3.47
2017-08-04T08:46:31.252Z,1.50
2017-08-04T08:48:58.699Z,2.77
2017-08-04T08:51:26.198Z,3.30
2017-08-04T08:53:54.420Z,1.77
2017-08-04T08:56:21.907Z,1.27
2017-08-04T08:58:49.343Z,2.53
2017-08-04T09:01:16.806Z,1.20
2017-08-04T09:03:44.272Z,2.23
2017-08-04T09:06:11.721Z,2.10
2017-08-04T09:08:39.178Z,2.13
2017-08-04T09:11:06.631Z,3.63
2017-08-04T09:13:34.084Z,1.60
2017-08-04T09:16:01.568Z,3.77
2017-08-04T09:18:29.023Z,2.23
2017-08-04T09:20:57.230Z,2.33
2017-08-04T09:23:24.744Z,2.37
2017-08-04T09:25:52.212Z,1.63
2017-08-04T09:28:20.469Z,1.87
2017-08-04T09:30:47.943Z,2.73
2017-08-04T09:33:16.158Z,3.70
2017-08-04T09:35:43.600Z,2.97
2017-08-04T09:38:11.115Z,1.60
2017-08-04T09:40:38.557Z,1.50
2017-08-04T09:43:06.119Z,2.17
2017-08-04T09:45:33.589Z,1.30
2017-08-04T09:48:01.032Z,1.90
2017-08-04T09:50:28.596Z,2.27
2017-08-04T09:52:56.036Z,1.53
2017-08-04T09:55:23.483Z,2.27
2017-08-04T09:57:50.956Z,1.40
2017-08-04T10:00:18.400Z,3.80
2017-08-04T10:02:45.844Z,7.83
2017-08-04T10:05:13.343Z,2.33
2017-08-04T10:07:40.791Z,2.13
2017-08-04T10:10:08.227Z,1.30
2017-08-04T10:12:35.801Z,3.13
2017-08-04T10:15:03.259Z,2.10
2017-08-04T10:17:30.705Z,3.23
2017-08-04T10:19:58.183Z,1.83
2017-08-04T10:22:26.403Z,2.10
2017-08-04T10:24:53.873Z,2.33
2017-08-04T10:27:21.313Z,1.10
2017-08-04T10:29:48.811Z,1.73
2017-08-04T10:32:16.282Z,2.07
2017-08-04T10:34:43.816Z,1.47
2017-08-04T10:37:11.296Z,1.60
2017-08-04T10:39:38.763Z,1.50
2017-08-04T10:42:06.996Z,3.90
2017-08-04T10:44:34.466Z,4.17
2017-08-04T10:47:01.952Z,1.70
2017-08-04T10:49:30.155Z,2.13
2017-08-04T10:51:57.713Z,1.50
2017-08-04T10:54:25.186Z,2.30
2017-08-04T10:56:52.647Z,1.33
2017-08-04T10:59:20.120Z,1.97
2017-08-04T11:01:47.594Z,1.30
2017-08-04T11:04:15.138Z,1.40
2017-08-04T11:06:42.597Z,1.93
2017-08-04T11:09:10.082Z,1.73
2017-08-04T11:11:38.317Z,1.40
2017-08-04T11:14:05.787Z,1.90
2017-08-04T11:16:33.249Z,1.83
2017-08-04T11:19:00.696Z,2.60
2017-08-04T11:21:28.149Z,1.60
2017-08-04T11:23:55.703Z,1.93
2017-08-04T11:26:23.160Z,1.50
2017-08-04T11:28:50.612Z,1.50
2017-08-04T11:31:18.096Z,2.00
2017-08-04T11:33:45.536Z,1.80
2017-08-04T11:36:13.087Z,1.63
2017-08-04T11:38:40.644Z,2.90
2017-08-04T11:41:08.205Z,2.27
2017-08-04T11:43:35.659Z,1.60
2017-08-04T11:46:03.103Z,2.97
2017-08-04T11:48:30.594Z,1.60
2017-08-04T11:50:58.031Z,1.30
2017-08-04T11:53:25.475Z,2.27
2017-08-04T11:55:53.040Z,4.03
2017-08-04T11:58:20.596Z,3.33
2017-08-04T12:00:48.037Z,3.00
2017-08-04T12:03:15.521Z,3.20
2017-08-04T12:05:42.968Z,3.40
2017-08-04T12:08:10.467Z,3.20
2017-08-04T12:10:37.949Z,4.93
2017-08-04T12:13:05.389Z,3.60
2017-08-04T12:15:32.893Z,2.60
2017-08-04T12:18:00.340Z,3.60
2017-08-04T12:20:27.805Z,2.93
2017-08-04T12:22:55.276Z,2.27
2017-08-04T12:25:22.733Z,3.97
2017-08-04T12:27:50.218Z,2.10
2017-08-04T12:30:18.421Z,2.17
2017-08-04T12:32:45.863Z,2.87
2017-08-04T12:35:13.351Z,2.10
2017-08-04T12:37:40.831Z,1.97
2017-08-04T12:40:08.294Z,2.90
2017-08-04T12:42:35.848Z,2.37
2017-08-04T12:45:03.292Z,3.67
2017-08-04T12:47:30.763Z,2.97
2017-08-04T12:49:58.207Z,2.40
2017-08-04T12:52:25.651Z,2.37
2017-08-04T12:54:53.111Z,2.77
2017-08-04T12:57:20.590Z,5.67
2017-08-04T12:59:48.073Z,4.47
2017-08-04T13:02:15.592Z,2.17
2017-08-04T13:04:43.035Z,2.90
2017-08-04T13:07:10.517Z,4.73
2017-08-04T13:09:38.052Z,2.53
2017-08-04T13:12:05.494Z,2.60
2017-08-04T13:14:32.976Z,2.90
2017-08-04T13:17:00.428Z,2.67
2017-08-04T13:19:27.876Z,3.87
2017-08-04T13:21:55.344Z,1.77
2017-08-04T13:24:22.791Z,5.73
2017-08-04T13:26:50.259Z,2.80
2017-08-04T13:29:17.708Z,4.23
2017-08-04T13:31:45.161Z,2.53
2017-08-04T13:34:12.632Z,2.90
2017-08-04T13:36:40.112Z,3.67
2017-08-04T13:39:08.336Z,2.83
2017-08-04T13:41:35.800Z,2.33
2017-08-04T13:44:03.269Z,2.70
2017-08-04T13:46:30.761Z,3.50
2017-08-04T13:48:58.221Z,2.50
2017-08-04T13:51:25.676Z,3.50
2017-08-04T13:53:53.183Z,3.00
2017-08-04T13:56:20.634Z,4.73
2017-08-04T13:58:48.111Z,3.87
2017-08-04T14:01:15.566Z,2.53
2017-08-04T14:03:43.145Z,3.70
2017-08-04T14:06:11.372Z,2.67
2017-08-04T14:08:38.831Z,2.10
2017-08-04T14:11:06.322Z,3.00
2017-08-04T14:13:33.903Z,2.90
2017-08-04T14:16:01.413Z,7.03
2017-08-04T14:18:29.024Z,2.73
2017-08-04T14:20:57.224Z,2.90
2017-08-04T14:23:24.729Z,2.50
2017-08-04T14:25:52.991Z,3.50
2017-08-04T14:28:20.546Z,3.97
2017-08-04T14:30:48.007Z,3.83
2017-08-04T14:33:15.580Z,3.40
2017-08-04T14:35:43.828Z,2.40
2017-08-04T14:38:11.306Z,3.10
2017-08-04T14:40:38.779Z,3.10
2017-08-04T14:43:07.019Z,7.20
2017-08-04T14:45:34.460Z,4.33
2017-08-04T14:48:01.956Z,5.73
2017-08-04T14:50:30.176Z,2.43
2017-08-04T14:52:57.632Z,3.07
2017-08-04T14:55:25.110Z,3.07
2017-08-04T14:57:52.585Z,6.50
2017-08-04T15:00:20.048Z,6.33
2017-08-04T15:02:47.518Z,2.80
2017-08-04T15:05:15.880Z,3.20
2017-08-04T15:07:43.323Z,3.63
2017-08-04T15:10:10.767Z,3.27
2017-08-04T15:12:38.262Z,5.10
2017-08-04T15:15:06.472Z,2.30
2017-08-04T15:17:33.923Z,3.00
2017-08-04T15:20:01.407Z,2.77
2017-08-04T15:22:28.874Z,3.37
2017-08-04T15:24:56.357Z,4.30
2017-08-04T15:27:24.598Z,4.70
2017-08-04T15:29:52.077Z,2.50
2017-08-04T15:32:19.544Z,4.00
2017-08-04T15:34:47.772Z,2.20
2017-08-04T15:37:15.360Z,2.23
2017-08-04T15:39:42.815Z,2.13
2017-08-04T15:42:10.289Z,2.23
2017-08-04T15:44:37.747Z,3.00
2017-08-04T15:47:05.982Z,1.40
2017-08-04T15:49:33.475Z,2.93
2017-08-04T15:52:00.925Z,3.67
2017-08-04T15:54:28.409Z,3.97
2017-08-04T15:56:55.855Z,1.30
2017-08-04T15:59:24.091Z,1.73
2017-08-04T16:01:51.584Z,1.33
2017-08-04T16:04:19.111Z,1.87
2017-08-04T16:06:46.568Z,1.50
2017-08-04T16:09:14.048Z,1.83
2017-08-04T16:11:41.548Z,3.43
2017-08-04T16:14:09.020Z,1.40
2017-08-04T16:16:36.475Z,3.23
2017-08-04T16:19:04.060Z,4.57
2017-08-04T16:21:31.497Z,2.07
2017-08-04T16:23:59.015Z,1.40
2017-08-04T16:26:26.458Z,2.90
2017-08-04T16:28:53.915Z,2.10
2017-08-04T16:31:21.419Z,3.90
2017-08-04T16:33:48.865Z,1.83
2017-08-04T16:36:16.351Z,3.33
2017-08-04T16:38:43.860Z,3.50
2017-08-04T16:41:11.317Z,3.70
2017-08-04T16:43:38.807Z,2.77
2017-08-04T16:46:06.269Z,2.57
2017-08-04T16:48:33.711Z,3.73
2017-08-04T16:51:01.194Z,5.30
2017-08-04T16:53:28.645Z,5.13
2017-08-04T16:55:56.104Z,4.90
2017-08-04T16:58:23.582Z,3.73
2017-08-04T17:00:51.788Z,2.37
2017-08-04T17:03:19.294Z,3.13
2017-08-04T17:05:46.779Z,7.10
2017-08-04T17:08:14.237Z,2.80
2017-08-04T17:10:41.715Z,5.20
2017-08-04T17:13:09.185Z,4.63
2017-08-04T17:15:36.668Z,2.73
2017-08-04T17:18:04.124Z,2.00
2017-08-04T17:20:31.599Z,4.13
2017-08-04T17:23:00.451Z,3.83
2017-08-04T17:25:27.905Z,3.97
2017-08-04T17:27:55.481Z,6.00
2017-08-04T17:30:22.932Z,2.20
2017-08-04T17:32:50.427Z,2.50
2017-08-04T17:35:18.654Z,7.53
2017-08-04T17:37:46.125Z,8.53
2017-08-04T17:40:13.592Z,3.60
2017-08-04T17:42:41.045Z,3.10
2017-08-04T17:45:08.592Z,10.80
2017-08-04T17:47:36.036Z,9.40
2017-08-04T17:50:03.523Z,6.23
2017-08-04T17:52:30.973Z,3.73
2017-08-04T17:54:58.422Z,5.40
2017-08-04T17:57:25.897Z,3.40
2017-08-04T17:59:54.111Z,3.07
2017-08-04T18:02:33.432Z,11.03
2017-08-04T18:05:00.900Z,6.27
2017-08-04T18:07:28.339Z,10.83
2017-08-04T18:09:56.565Z,10.90
2017-08-04T18:12:24.128Z,11.90
2017-08-04T18:14:51.575Z,5.80
2017-08-04T18:17:19.075Z,14.93
2017-08-04T18:19:47.363Z,7.23
2017-08-04T18:22:15.553Z,4.53
2017-08-04T18:24:43.041Z,4.43
2017-08-04T18:27:10.497Z,4.80
2017-08-04T18:29:37.974Z,5.90
2017-08-04T18:32:05.449Z,4.80
2017-08-04T18:34:33.719Z,3.93
2017-08-04T18:37:02.013Z,4.23
2017-08-04T18:39:30.255Z,5.23
2017-08-04T18:41:58.512Z,3.30
2017-08-04T18:44:25.982Z,4.13
2017-08-04T18:46:53.444Z,4.60
2017-08-04T18:49:20.909Z,4.53
2017-08-04T18:51:49.125Z,6.33
2017-08-04T18:54:16.637Z,4.27
2017-08-04T18:56:44.908Z,9.40
2017-08-04T18:59:12.403Z,6.83
2017-08-04T19:01:39.893Z,9.00
2017-08-04T19:04:07.362Z,4.30
2017-08-04T19:06:35.762Z,5.27
2017-08-04T19:09:03.192Z,6.67
2017-08-04T19:11:30.669Z,4.33
2017-08-04T19:13:58.148Z,4.03
2017-08-04T19:16:25.618Z,3.80
2017-08-04T19:18:53.127Z,4.60
2017-08-04T19:21:20.578Z,3.43
2017-08-04T19:23:48.028Z,10.50
2017-08-04T19:26:15.532Z,5.10
2017-08-04T19:28:42.992Z,6.00
2017-08-04T19:31:10.447Z,10.00
2017-08-04T19:33:37.942Z,4.00
2017-08-04T19:36:05.397Z,6.60
2017-08-04T19:38:32.893Z,5.90
2017-08-04T19:41:00.352Z,5.70
2017-08-04T19:43:28.601Z,5.13
2017-08-04T19:45:56.156Z,5.77
2017-08-04T19:48:23.886Z,6.50
2017-08-04T19:50:51.387Z,3.20
2017-08-04T19:53:18.861Z,9.47
2017-08-04T19:55:47.072Z,8.03
2017-08-04T19:58:14.576Z,5.47
2017-08-04T20:00:42.049Z,9.33
2017-08-04T20:03:09.499Z,9.00
2017-08-04T20:05:37.146Z,5.13
2017-08-04T20:08:04.588Z,5.30
2017-08-04T20:10:32.035Z,2.70
2017-08-04T20:12:59.517Z,5.37
2017-08-04T20:15:27.046Z,6.43
2017-08-04T20:17:54.543Z,14.47
2017-08-04T20:20:22.790Z,6.90
2017-08-04T20:22:50.305Z,6.07
2017-08-04T20:25:17.792Z,9.27
2017-08-04T20:27:45.250Z,4.13
2017-08-04T20:30:12.780Z,5.90
2017-08-04T20:32:40.300Z,4.80
2017-08-04T20:35:07.772Z,7.23
2017-08-04T20:37:36.026Z,6.20
2017-08-04T20:40:03.466Z,5.40
2017-08-04T20:42:30.918Z,7.03
2017-08-04T20:44:58.432Z,7.33
2017-08-04T20:47:25.878Z,5.27
2017-08-04T20:49:54.123Z,4.23
2017-08-04T20:52:21.638Z,4.03
2017-08-04T20:54:49.142Z,5.50
2017-08-04T20:57:16.636Z,4.50
2017-08-04T20:59:44.090Z,5.73
2017-08-04T21:02:11.542Z,9.83
2017-08-04T21:04:39.041Z,9.03
2017-08-04T21:07:06.492Z,4.40
2017-08-04T21:09:33.972Z,6.10
2017-08-04T21:12:01.433Z,2.87
2017-08-04T21:14:28.890Z,6.43
2017-08-04T21:16:56.493Z,5.00
2017-08-04T21:19:23.939Z,6.60
2017-08-04T21:21:51.402Z,6.43
2017-08-04T21:24:18.880Z,8.43
2017-08-04T21:26:46.378Z,8.13
2017-08-04T21:29:13.887Z,4.73
2017-08-04T21:31:41.328Z,5.57
2017-08-04T21:34:08.828Z,7.77
2017-08-04T21:36:36.301Z,4.87
2017-08-04T21:39:04.544Z,6.60
2017-08-04T21:41:31.997Z,5.80
2017-08-04T21:43:59.494Z,4.63
2017-08-04T21:46:26.952Z,7.43
2017-08-04T21:48:54.388Z,8.83
2017-08-04T21:51:21.849Z,5.07
2017-08-04T21:53:49.288Z,6.07
2017-08-04T21:56:16.780Z,5.47
2017-08-04T21:58:44.228Z,4.40
2017-08-04T22:01:11.671Z,6.80
2017-08-04T22:03:39.133Z,9.30
2017-08-04T22:06:06.582Z,6.50
2017-08-04T22:08:34.053Z,5.20
2017-08-04T22:11:01.506Z,5.00
2017-08-04T22:13:28.950Z,4.27
2017-08-04T22:15:56.507Z,8.47
2017-08-04T22:18:23.959Z,4.57
2017-08-04T22:20:51.439Z,7.57
2017-08-04T22:23:19.665Z,5.23
2017-08-04T22:25:47.146Z,6.03
2017-08-04T22:28:14.661Z,7.33
2017-08-04T22:30:42.138Z,4.93
2017-08-04T22:33:09.621Z,5.07
2017-08-04T22:35:37.113Z,5.43
2017-08-04T22:38:05.440Z,6.80
2017-08-04T22:40:32.904Z,7.40
2017-08-04T22:43:00.377Z,6.00
2017-08-04T22:45:27.887Z,5.63
2017-08-04T22:47:55.332Z,7.63
2017-08-04T22:50:22.863Z,5.23
2017-08-04T22:52:51.078Z,5.83
2017-08-04T22:55:18.544Z,7.10
2017-08-04T22:57:46.039Z,4.23
2017-08-04T23:00:13.592Z,8.10
2017-08-04T23:02:41.159Z,6.00
2017-08-04T23:05:08.602Z,9.03
2017-08-04T23:07:36.123Z,5.90
2017-08-04T23:10:03.597Z,14.57
2017-08-04T23:12:31.048Z,7.00
2017-08-04T23:14:58.523Z,8.80
2017-08-04T23:17:26.076Z,6.17
2017-08-04T23:19:53.517Z,6.30
2017-08-04T23:22:31.946Z,4.50
2017-08-04T23:24:59.391Z,4.40
2017-08-04T23:27:26.871Z,5.60
2017-08-04T23:29:54.347Z,6.87
2017-08-04T23:32:22.595Z,5.47
2017-08-04T23:34:50.072Z,5.57
2017-08-04T23:37:17.700Z,5.03
2017-08-04T23:39:45.136Z,4.27
2017-08-04T23:42:12.619Z,5.57
2017-08-04T23:44:40.075Z,6.17
2017-08-04T23:47:07.535Z,6.10
2017-08-04T23:49:34.996Z,5.57
2017-08-04T23:52:02.463Z,6.03
2017-08-04T23:54:29.942Z,7.67
2017-08-04T23:56:58.152Z,7.03
2017-08-04T23:59:25.645Z,7.17
